Time;durP1;ratioP1;P1;durP2;ratioP2;P2;SDS_P1;SDS_P2;PMS_P1;PMS_P2;Temp;Humidity;BMP_temperature;BMP_pressure;BME280_temperature;BME280_humidity;BME280_pressure;Samples;Min_cycle;Max_cycle;Signal;HPM_P1;HPM_P2
2022/05/20 00:02:15;;;;;;;4.32;2.28;;;20.10;85.90;;;;;;6213767;23;20035;-74
2022/05/20 00:04:41;;;;;;;2.53;2.33;;;20.10;85.90;;;;;;6213638;23;20059;-74
2022/05/20 00:07:09;;;;;;;4.55;2.38;;;20.20;85.80;;;;;;6213555;23;20063;-75
2022/05/20 00:09:35;;;;;;;2.50;2.30;;;20.10;86.00;;;;;;6213682;23;20005;-74
2022/05/20 00:12:04;;;;;;;2.35;2.15;;;20.00;85.90;;;;;;6213539;23;19996;-76
2022/05/20 00:14:31;;;;;;;3.03;2.42;;;20.00;86.20;;;;;;6213826;23;20455;-74
2022/05/20 00:16:56;;;;;;;4.15;2.35;;;20.00;86.20;;;;;;6213282;23;20392;-74
2022/05/20 00:19:22;;;;;;;3.10;2.22;;;20.00;86.30;;;;;;6213461;23;20000;-75
2022/05/20 00:21:48;;;;;;;2.42;2.33;;;19.90;86.60;;;;;;6213337;23;20031;-74
2022/05/20 00:24:14;;;;;;;5.05;2.33;;;19.90;86.70;;;;;;6213507;23;20333;-74
2022/05/20 00:26:39;;;;;;;2.78;2.20;;;19.90;87.00;;;;;;6213278;23;20088;-74
2022/05/20 00:29:05;;;;;;;5.90;2.00;;;19.90;87.00;;;;;;6213520;23;20070;-74
2022/05/20 00:31:31;;;;;;;3.45;2.05;;;19.90;87.00;;;;;;6213326;23;19997;-74
2022/05/20 00:33:56;;;;;;;2.58;2.38;;;19.90;86.90;;;;;;6213466;23;20080;-74
2022/05/20 00:36:22;;;;;;;1.98;1.70;;;19.80;87.00;;;;;;6213223;23;20023;-74
2022/05/20 00:38:49;;;;;;;2.08;1.98;;;19.80;87.50;;;;;;6213559;23;20055;-74
2022/05/20 00:41:15;;;;;;;3.13;2.40;;;19.70;87.30;;;;;;6213337;23;20004;-74
2022/05/20 00:43:46;;;;;;;2.75;2.15;;;19.70;87.40;;;;;;6213223;23;20369;-74
2022/05/20 00:46:15;;;;;;;5.25;2.08;;;19.70;87.70;;;;;;6211392;23;20008;-74
2022/05/20 00:48:42;;;;;;;7.03;2.85;;;19.60;88.10;;;;;;6213301;23;19903;-74
2022/05/20 00:51:39;;;;;;;3.63;2.22;;;19.60;88.20;;;;;;6211585;23;20458;-74
2022/05/20 00:54:18;;;;;;;3.30;2.30;;;19.60;88.80;;;;;;6206117;23;20008;-74
2022/05/20 00:56:51;;;;;;;4.03;2.05;;;19.50;89.10;;;;;;6213069;23;20034;-74
2022/05/20 00:59:20;;;;;;;2.40;2.20;;;19.60;89.20;;;;;;6213204;23;20427;-74
2022/05/20 01:01:51;;;;;;;1.90;1.80;;;19.50;88.90;;;;;;6213162;23;20004;-74
2022/05/20 01:04:18;;;;;;;3.80;2.55;;;19.60;88.80;;;;;;6213054;23;20079;-74
2022/05/20 01:06:44;;;;;;;3.03;2.30;;;19.60;88.80;;;;;;6212947;23;20000;-74
2022/05/20 01:09:09;;;;;;;3.33;2.10;;;19.60;88.90;;;;;;6213086;23;20059;-74
2022/05/20 01:11:38;;;;;;;3.78;2.35;;;19.60;89.00;;;;;;6213194;23;20420;-73
2022/05/20 01:14:04;;;;;;;2.53;2.17;;;19.50;89.00;;;;;;6213272;23;20021;-76
2022/05/20 01:16:32;;;;;;;4.05;2.03;;;19.50;89.00;;;;;;6212944;23;20040;-77
2022/05/20 01:18:58;;;;;;;1.92;1.77;;;19.50;89.20;;;;;;6213252;23;20474;-76
2022/05/20 01:21:24;;;;;;;7.68;2.47;;;19.50;89.20;;;;;;6213060;23;20004;-77
2022/05/20 01:23:50;;;;;;;2.75;1.92;;;19.40;89.30;;;;;;6211429;23;20013;-77
2022/05/20 01:26:20;;;;;;;3.60;2.05;;;19.40;90.00;;;;;;6212851;23;20428;-77
2022/05/20 01:28:45;;;;;;;3.78;2.30;;;19.40;90.10;;;;;;6212916;23;20007;-76
2022/05/20 01:31:18;;;;;;;4.10;2.30;;;19.30;90.00;;;;;;6212859;23;19996;-77
2022/05/20 01:33:48;;;;;;;2.13;2.03;;;19.30;90.10;;;;;;6213038;23;20009;-77
2022/05/20 01:36:17;;;;;;;4.03;2.20;;;19.30;90.10;;;;;;6212916;23;20000;-77
2022/05/20 01:38:43;;;;;;;2.47;1.98;;;19.30;90.30;;;;;;6212871;23;20379;-78
2022/05/20 01:41:33;;;;;;;4.95;2.35;;;19.30;90.20;;;;;;6212850;23;20515;-77
2022/05/20 01:44:13;;;;;;;1.88;1.77;;;19.20;90.20;;;;;;6212212;23;20432;-77
2022/05/20 01:46:49;;;;;;;4.80;2.28;;;19.20;90.40;;;;;;6212695;23;20036;-77
2022/05/20 01:49:18;;;;;;;8.02;2.97;;;19.20;90.40;;;;;;6213012;23;20000;-76
2022/05/20 01:51:55;;;;;;;2.03;1.90;;;19.20;90.30;;;;;;6212850;23;19997;-77
2022/05/20 01:54:40;;;;;;;2.08;1.98;;;19.20;90.40;;;;;;6211400;23;20008;-76
2022/05/20 01:57:18;;;;;;;2.83;1.80;;;19.20;90.40;;;;;;6212713;23;20004;-76
2022/05/20 01:59:50;;;;;;;2.00;1.90;;;19.10;90.40;;;;;;6212790;23;20033;-76
2022/05/20 02:02:25;;;;;;;2.10;2.00;;;19.10;90.30;;;;;;6212508;23;20079;-76
2022/05/20 02:04:58;;;;;;;2.10;1.90;;;19.20;90.30;;;;;;6212761;23;20083;-74
2022/05/20 02:07:30;;;;;;;6.05;2.22;;;19.30;90.00;;;;;;6212862;23;20001;-77
2022/05/20 02:10:29;;;;;;;2.38;2.17;;;19.30;89.90;;;;;;6212604;23;20203;-77
2022/05/20 02:12:58;;;;;;;2.60;1.83;;;19.30;90.30;;;;;;6212610;23;20011;-76
2022/05/20 02:15:32;;;;;;;2.70;2.50;;;19.30;90.00;;;;;;6210786;23;20024;-77
2022/05/20 02:18:02;;;;;;;3.33;2.00;;;19.20;90.00;;;;;;6213066;23;20012;-76
2022/05/20 02:20:42;;;;;;;2.60;2.25;;;19.20;90.10;;;;;;6212573;23;20028;-77
2022/05/20 02:23:19;;;;;;;2.22;1.95;;;19.20;90.30;;;;;;6212824;23;20004;-77
2022/05/20 02:25:50;;;;;;;3.22;1.90;;;19.20;90.20;;;;;;6212349;23;20009;-76
2022/05/20 02:28:21;;;;;;;5.50;2.22;;;19.20;90.20;;;;;;6211308;23;20005;-76
2022/05/20 02:30:49;;;;;;;2.03;1.83;;;19.30;90.10;;;;;;6212639;23;20083;-77
2022/05/20 02:33:18;;;;;;;2.47;2.00;;;19.20;90.00;;;;;;6212565;23;20001;-76
2022/05/20 02:35:44;;;;;;;3.65;1.80;;;19.20;90.00;;;;;;6212431;23;20047;-76
2022/05/20 02:38:20;;;;;;;5.35;2.13;;;19.30;89.80;;;;;;6212634;23;20000;-77
2022/05/20 02:40:51;;;;;;;2.30;2.10;;;19.30;89.50;;;;;;6212659;23;20001;-76
2022/05/20 02:43:18;;;;;;;5.97;2.05;;;19.20;89.40;;;;;;6211060;23;20486;-76
2022/05/20 02:45:46;;;;;;;2.88;2.15;;;19.20;89.60;;;;;;6212625;23;20001;-76
2022/05/20 02:48:15;;;;;;;6.13;1.67;;;19.20;89.80;;;;;;6211022;23;20009;-76
2022/05/20 02:50:41;;;;;;;2.53;1.75;;;19.20;89.60;;;;;;6210935;23;20371;-74
2022/05/20 02:53:07;;;;;;;2.83;2.10;;;19.20;89.60;;;;;;6212777;23;20428;-74
2022/05/20 02:55:33;;;;;;;2.67;2.25;;;19.30;89.70;;;;;;6213946;23;20001;-74
2022/05/20 02:57:59;;;;;;;1.88;1.77;;;19.30;89.50;;;;;;6214331;23;20004;-74
2022/05/20 03:05:53;;;;;;;3.65;1.83;;;19.40;88.60;;;;;;6214449;23;20048;-77
2022/05/20 03:08:19;;;;;;;4.07;2.38;;;19.40;88.80;;;;;;6214110;23;20001;-77
2022/05/20 03:10:46;;;;;;;2.30;2.05;;;19.40;88.50;;;;;;6214337;23;20011;-76
2022/05/20 03:13:12;;;;;;;2.42;2.10;;;19.30;88.70;;;;;;6214207;23;20076;-76
2022/05/20 03:15:39;;;;;;;2.28;1.83;;;19.30;89.10;;;;;;6213905;23;19996;-76
2022/05/20 03:18:06;;;;;;;3.28;2.15;;;19.20;89.30;;;;;;6214096;23;20177;-76
2022/05/20 03:20:33;;;;;;;1.92;1.83;;;19.20;89.40;;;;;;6214256;23;20012;-76
2022/05/20 03:22:59;;;;;;;2.05;1.95;;;19.10;89.70;;;;;;6213885;23;20000;-76
2022/05/20 03:25:24;;;;;;;2.03;1.90;;;19.10;89.90;;;;;;6214107;23;20451;-73
2022/05/20 03:27:51;;;;;;;2.15;1.95;;;19.10;90.00;;;;;;6213844;23;20005;-74
2022/05/20 03:30:17;;;;;;;1.70;1.60;;;19.10;90.10;;;;;;6214118;23;20000;-74
2022/05/20 03:32:43;;;;;;;3.13;2.13;;;19.10;90.00;;;;;;6214161;23;20000;-73
2022/05/20 03:35:09;;;;;;;3.70;2.45;;;19.10;90.00;;;;;;6213864;23;20429;-73
2022/05/20 03:37:35;;;;;;;6.82;2.22;;;19.10;89.80;;;;;;6187310;23;20253;-73
2022/05/20 03:40:01;;;;;;;3.63;2.00;;;19.20;89.60;;;;;;6213837;23;20011;-77
2022/05/20 03:42:27;;;;;;;2.50;2.30;;;19.20;89.80;;;;;;6213869;23;20538;-76
2022/05/20 03:44:53;;;;;;;3.30;2.20;;;19.20;90.00;;;;;;6213474;23;20004;-76
2022/05/20 03:47:19;;;;;;;2.88;2.17;;;19.10;90.10;;;;;;6213696;23;20070;-77
2022/05/20 03:49:46;;;;;;;2.25;2.10;;;19.10;90.10;;;;;;6213884;23;20029;-77
2022/05/20 03:52:12;;;;;;;3.13;2.03;;;19.10;90.10;;;;;;6213896;23;20008;-77
2022/05/20 03:54:39;;;;;;;3.50;2.03;;;19.20;90.20;;;;;;6213607;23;20001;-76
2022/05/20 03:57:06;;;;;;;6.18;2.17;;;19.20;90.30;;;;;;6213491;23;20009;-76
2022/05/20 03:59:35;;;;;;;5.97;2.13;;;19.20;90.30;;;;;;6213715;23;20432;-74
2022/05/20 04:02:01;;;;;;;2.33;2.17;;;19.20;90.30;;;;;;6213677;23;20001;-76
2022/05/20 04:04:37;;;;;;;4.50;2.00;;;19.10;90.50;;;;;;6213648;23;20051;-77
2022/05/20 04:07:09;;;;;;;2.47;2.20;;;19.10;90.50;;;;;;6213404;23;20424;-76
2022/05/20 04:09:35;;;;;;;2.30;2.20;;;19.20;90.60;;;;;;6213837;23;19993;-76
2022/05/20 04:12:06;;;;;;;3.28;2.13;;;19.10;90.60;;;;;;6213714;23;20063;-76
2022/05/20 04:14:32;;;;;;;4.27;2.53;;;19.10;90.70;;;;;;6213760;23;20046;-76
2022/05/20 04:17:01;;;;;;;2.92;2.70;;;19.10;90.90;;;;;;6213427;23;20016;-77
2022/05/20 04:19:30;;;;;;;3.00;2.70;;;19.10;90.90;;;;;;6186954;23;20001;-76
2022/05/20 04:21:59;;;;;;;3.38;2.60;;;19.10;91.10;;;;;;6213449;23;20340;-76
2022/05/20 04:24:25;;;;;;;2.97;2.70;;;19.10;91.10;;;;;;6213558;23;20059;-76
2022/05/20 04:26:51;;;;;;;2.55;2.33;;;19.10;91.30;;;;;;6212979;23;20008;-77
2022/05/20 04:29:18;;;;;;;3.88;2.58;;;19.10;91.30;;;;;;6213317;23;20318;-76
2022/05/20 04:31:46;;;;;;;2.72;2.45;;;19.10;91.40;;;;;;6186623;23;20373;-77
2022/05/20 04:34:12;;;;;;;4.10;2.63;;;19.10;91.60;;;;;;6213543;23;20020;-77
2022/05/20 04:36:38;;;;;;;3.95;2.67;;;19.10;91.70;;;;;;6211772;23;20000;-76
2022/05/20 04:39:05;;;;;;;3.65;2.42;;;19.10;91.90;;;;;;6211993;23;20004;-77
2022/05/20 04:47:02;;;;;;;3.55;2.75;;;19.10;92.40;;;;;;6211339;23;20032;-76
2022/05/20 04:49:30;;;;;;;2.55;2.35;;;19.00;92.60;;;;;;6211548;23;20004;-77
2022/05/20 04:51:56;;;;;;;5.68;3.03;;;19.00;92.80;;;;;;6212115;23;20024;-76
2022/05/20 04:57:08;;;;;;;3.17;2.80;;;19.10;93.10;;;;;;6212024;23;20359;-76
2022/05/20 04:59:35;;;;;;;3.15;2.78;;;19.10;93.10;;;;;;6212002;23;20424;-76
2022/05/20 05:02:04;;;;;;;4.88;2.35;;;19.20;93.10;;;;;;6213201;23;20397;-76
2022/05/20 05:04:30;;;;;;;6.45;2.67;;;19.20;93.10;;;;;;6212953;23;20001;-77
2022/05/20 05:06:56;;;;;;;4.07;2.90;;;19.30;93.30;;;;;;6213065;23;20344;-76
2022/05/20 05:09:22;;;;;;;4.55;2.65;;;19.30;93.40;;;;;;6213058;23;20004;-76
2022/05/20 05:11:47;;;;;;;4.40;2.88;;;19.40;93.50;;;;;;6213158;23;20003;-76
2022/05/20 05:14:15;;;;;;;7.10;3.20;;;19.50;93.50;;;;;;6186255;23;20005;-76
2022/05/20 05:16:45;;;;;;;4.45;2.75;;;19.50;93.50;;;;;;6212627;23;20016;-76
2022/05/20 05:19:11;;;;;;;3.03;2.78;;;19.60;93.50;;;;;;6212149;23;20024;-76
2022/05/20 05:21:38;;;;;;;6.32;3.20;;;19.70;93.40;;;;;;6213097;23;20298;-77
2022/05/20 05:24:05;;;;;;;5.28;2.70;;;19.80;93.30;;;;;;6213195;23;19996;-76
2022/05/20 05:26:34;;;;;;;5.53;2.72;;;19.90;93.30;;;;;;6212448;23;20000;-74
2022/05/20 05:29:01;;;;;;;6.25;2.80;;;20.00;93.30;;;;;;6185850;23;20001;-73
2022/05/20 05:31:27;;;;;;;3.80;2.80;;;20.10;93.30;;;;;;6212920;23;20491;-73
2022/05/20 05:33:53;;;;;;;6.18;2.60;;;20.10;93.40;;;;;;6212024;23;19996;-73
2022/05/20 05:36:20;;;;;;;2.47;2.28;;;20.20;93.70;;;;;;6210416;23;20000;-74
2022/05/20 05:38:46;;;;;;;4.15;3.10;;;20.30;93.50;;;;;;6210605;23;20432;-73
2022/05/20 05:41:13;;;;;;;4.45;2.50;;;20.30;93.30;;;;;;6210727;23;20001;-74
2022/05/20 05:43:39;;;;;;;5.18;2.58;;;20.40;93.10;;;;;;6210638;23;20070;-73
2022/05/20 05:46:05;;;;;;;3.88;2.70;;;20.40;93.80;;;;;;6210927;23;20460;-74
2022/05/20 05:48:30;;;;;;;4.68;2.90;;;20.50;93.60;;;;;;6211139;23;20011;-74
2022/05/20 05:50:56;;;;;;;4.75;2.47;;;20.50;93.40;;;;;;6212452;23;19997;-77
2022/05/20 05:53:26;;;;;;;6.75;2.20;;;20.50;92.90;;;;;;6212785;23;20445;-77
2022/05/20 05:55:58;;;;;;;5.82;2.42;;;20.50;92.30;;;;;;6212422;23;20336;-76
2022/05/20 05:58:25;;;;;;;;;;;20.60;91.00;;;;;;6213422;23;20035;-77
2022/05/20 06:00:50;;;;;;;3.92;2.30;;;20.50;90.80;;;;;;6212640;23;20312;-76
2022/05/20 06:03:16;;;;;;;6.00;2.10;;;20.60;90.90;;;;;;6212602;23;20007;-76
2022/05/20 06:05:44;;;;;;;5.53;2.42;;;20.70;90.30;;;;;;6212464;23;20433;-75
2022/05/20 06:08:10;;;;;;;3.17;2.10;;;20.70;88.30;;;;;;6186055;23;20004;-76
2022/05/20 06:10:36;;;;;;;3.03;1.83;;;20.70;86.50;;;;;;6185628;23;20571;-77
2022/05/20 06:13:02;;;;;;;7.50;1.73;;;20.80;84.10;;;;;;6185958;23;20036;-77
2022/05/20 06:15:28;;;;;;;4.47;1.85;;;20.80;82.90;;;;;;6212503;23;20023;-77
2022/05/20 06:17:56;;;;;;;11.20;1.83;;;20.80;84.30;;;;;;6212571;23;20009;-74
2022/05/20 06:20:23;;;;;;;2.15;1.70;;;20.90;84.40;;;;;;6212422;23;20028;-75
2022/05/20 06:22:50;;;;;;;6.80;2.08;;;20.90;84.90;;;;;;6212604;23;20075;-75
2022/05/20 06:25:16;;;;;;;8.32;1.70;;;21.00;82.40;;;;;;6212614;23;20432;-75
2022/05/20 06:27:42;;;;;;;5.53;2.13;;;21.00;82.60;;;;;;6212378;23;20011;-74
2022/05/20 06:30:11;;;;;;;3.17;1.80;;;21.00;82.40;;;;;;6213745;23;20075;-74
2022/05/20 06:32:37;;;;;;;1.70;1.60;;;21.10;83.20;;;;;;6214370;23;20031;-77
2022/05/20 06:40:34;;;;;;;4.70;1.92;;;21.30;83.00;;;;;;6214914;23;20324;-77
2022/05/20 06:43:00;;;;;;;4.80;2.10;;;21.30;82.90;;;;;;6215765;23;20083;-73
2022/05/20 06:45:31;;;;;;;3.88;2.38;;;21.30;84.20;;;;;;6189371;23;20088;-75
2022/05/20 06:47:56;;;;;;;2.95;2.35;;;21.30;84.10;;;;;;6216187;23;20331;-78
2022/05/20 06:50:22;;;;;;;3.78;2.83;;;21.40;84.00;;;;;;6216513;23;20029;-77
2022/05/20 06:52:48;;;;;;;3.40;2.55;;;21.40;83.80;;;;;;6216471;23;20432;-74
2022/05/20 06:55:14;;;;;;;3.35;3.03;;;21.40;83.20;;;;;;6216751;23;19996;-74
2022/05/20 06:57:40;;;;;;;4.03;2.30;;;21.40;84.40;;;;;;6217065;23;20005;-77
2022/05/20 07:00:10;;;;;;;10.93;2.28;;;21.50;83.60;;;;;;6216794;23;20479;-78
2022/05/20 07:02:36;;;;;;;2.75;1.65;;;21.50;81.80;;;;;;6214965;23;20011;-74
2022/05/20 07:05:04;;;;;;;3.03;2.00;;;21.50;78.20;;;;;;6216177;23;20068;-78
2022/05/20 07:07:31;;;;;;;2.38;1.95;;;21.60;75.40;;;;;;6215891;23;20011;-74
2022/05/20 07:09:57;;;;;;;3.58;2.05;;;21.60;75.80;;;;;;6216290;23;20409;-74
2022/05/20 07:12:22;;;;;;;4.95;2.00;;;21.60;75.50;;;;;;6216556;23;19997;-74
2022/05/20 07:14:48;;;;;;;11.13;2.03;;;21.70;76.40;;;;;;6216506;23;20444;-74
2022/05/20 07:17:18;;;;;;;3.10;2.03;;;21.70;76.50;;;;;;6216326;23;20012;-73
2022/05/20 07:19:43;;;;;;;6.05;2.35;;;21.70;76.40;;;;;;6216557;23;20436;-76
2022/05/20 07:22:09;;;;;;;4.68;2.40;;;21.80;75.20;;;;;;6215747;23;20000;-76
2022/05/20 07:24:37;;;;;;;4.88;2.15;;;21.80;75.60;;;;;;6216483;23;20012;-77
2022/05/20 07:27:03;;;;;;;2.90;2.20;;;21.80;75.30;;;;;;6215595;23;20001;-76
2022/05/20 07:29:29;;;;;;;5.07;2.50;;;21.90;78.20;;;;;;6215604;23;20007;-76
2022/05/20 07:31:55;;;;;;;4.07;2.20;;;21.90;77.80;;;;;;6215203;23;20525;-74
2022/05/20 07:34:21;;;;;;;7.38;2.30;;;21.90;77.90;;;;;;6216453;23;20032;-74
2022/05/20 07:36:47;;;;;;;11.57;2.53;;;21.90;76.60;;;;;;6216230;23;20004;-75
2022/05/20 07:39:12;;;;;;;5.15;2.05;;;22.00;78.30;;;;;;6216274;23;20031;-74
2022/05/20 07:41:38;;;;;;;2.85;2.65;;;22.00;77.20;;;;;;6216122;23;20472;-74
2022/05/20 07:44:04;;;;;;;5.07;2.35;;;22.10;78.10;;;;;;6216628;23;20313;-75
2022/05/20 07:46:30;;;;;;;2.67;2.40;;;22.10;78.40;;;;;;6215044;23;20134;-71
2022/05/20 07:48:56;;;;;;;5.72;3.20;;;22.20;79.10;;;;;;6214154;23;20001;-71
2022/05/20 07:51:24;;;;;;;6.38;2.63;;;22.20;80.30;;;;;;6214962;23;20302;-72
2022/05/20 07:53:57;;;;;;;8.13;3.67;;;22.30;81.60;;;;;;6215167;23;20001;-71
2022/05/20 07:56:32;;;;;;;7.72;2.83;;;22.40;79.70;;;;;;6188715;23;20009;-71
2022/05/20 07:59:20;;;;;;;9.45;2.65;;;22.40;80.20;;;;;;6215499;23;20051;-71
2022/05/20 08:01:50;;;;;;;9.60;3.05;;;22.50;80.50;;;;;;6215295;23;20001;-71
2022/05/20 08:07:18;;;;;;;6.05;3.05;;;22.50;79.50;;;;;;6215171;23;20035;-71
2022/05/20 08:09:44;;;;;;;4.07;2.90;;;22.70;76.60;;;;;;6214946;23;20463;-71
2022/05/20 08:12:10;;;;;;;5.63;2.88;;;22.70;76.70;;;;;;6188440;23;20000;-71
2022/05/20 08:14:35;;;;;;;9.82;2.80;;;22.70;78.00;;;;;;6214969;23;20000;-71
2022/05/20 08:17:02;;;;;;;7.20;2.20;;;22.80;78.20;;;;;;6215117;23;20032;-71
2022/05/20 08:19:29;;;;;;;4.20;3.05;;;22.90;80.00;;;;;;6188025;23;20036;-71
2022/05/20 08:21:55;;;;;;;5.10;2.85;;;22.90;79.60;;;;;;6215113;23;20001;-71
2022/05/20 08:24:21;;;;;;;5.18;2.35;;;23.00;79.50;;;;;;6214952;23;20005;-71
2022/05/20 08:26:47;;;;;;;4.75;2.53;;;23.10;78.80;;;;;;6213892;23;20440;-71
2022/05/20 08:29:16;;;;;;;4.70;2.35;;;23.20;76.30;;;;;;6215084;23;20004;-71
2022/05/20 08:31:42;;;;;;;4.80;2.45;;;23.20;75.50;;;;;;6215035;23;19997;-71
2022/05/20 08:34:09;;;;;;;10.88;3.03;;;23.20;74.60;;;;;;6214823;23;20079;-71
2022/05/20 08:36:39;;;;;;;4.85;1.83;;;23.20;74.30;;;;;;6214731;23;20093;-71
2022/05/20 08:39:07;;;;;;;4.30;2.30;;;23.30;75.80;;;;;;6214787;23;20004;-71
2022/05/20 08:41:38;;;;;;;8.73;2.05;;;23.30;74.60;;;;;;6215153;23;19997;-71
2022/05/20 08:44:06;;;;;;;3.53;2.83;;;23.50;73.50;;;;;;6215064;23;20000;-71
2022/05/20 08:46:32;;;;;;;4.40;2.70;;;23.60;75.80;;;;;;6187886;23;20000;-72
2022/05/20 08:48:58;;;;;;;7.30;2.72;;;23.60;72.00;;;;;;6214189;23;20003;-71
2022/05/20 08:51:30;;;;;;;4.82;2.50;;;23.60;73.60;;;;;;6214410;23;20340;-71
2022/05/20 08:53:56;;;;;;;9.30;2.67;;;23.70;72.30;;;;;;6214587;23;20000;-71
2022/05/20 08:56:25;;;;;;;15.27;2.33;;;23.80;72.10;;;;;;6214663;23;21036;-71
2022/05/20 08:58:54;;;;;;;8.77;2.65;;;23.90;69.90;;;;;;6214689;23;20004;-74
2022/05/20 09:01:41;;;;;;;2.80;2.33;;;23.90;68.50;;;;;;6214577;23;20479;-71
2022/05/20 09:04:12;;;;;;;7.70;5.82;;;23.80;68.60;;;;;;6213793;23;20015;-72
2022/05/20 09:06:58;;;;;;;7.85;4.40;;;23.70;75.30;;;;;;6214395;23;20095;-74
2022/05/20 09:09:28;;;;;;;5.93;3.45;;;23.60;74.30;;;;;;6187940;23;20000;-74
2022/05/20 09:11:56;;;;;;;3.33;3.03;;;23.60;71.80;;;;;;6214819;23;20021;-73
2022/05/20 09:17:24;;;;;;;5.35;2.78;;;23.60;73.40;;;;;;6214283;23;20119;-74
2022/05/20 09:20:01;;;;;;;4.20;3.88;;;23.70;72.50;;;;;;6214302;23;20028;-74
2022/05/20 09:22:29;;;;;;;6.53;2.65;;;23.80;72.80;;;;;;6214374;23;20035;-74
2022/05/20 09:24:56;;;;;;;15.13;2.78;;;23.70;70.10;;;;;;6214170;23;20009;-71
2022/05/20 09:27:40;;;;;;;4.10;2.13;;;23.80;71.40;;;;;;6214034;23;20079;-71
2022/05/20 09:30:13;;;;;;;3.67;2.05;;;24.10;67.70;;;;;;6214451;23;20008;-72
2022/05/20 09:33:09;;;;;;;5.05;2.28;;;24.10;66.90;;;;;;6214066;23;20001;-71
2022/05/20 09:35:36;;;;;;;3.22;2.22;;;24.20;66.90;;;;;;6213217;23;20083;-73
2022/05/20 09:38:10;;;;;;;2.25;1.92;;;24.30;68.90;;;;;;6187014;23;20004;-71
2022/05/20 09:40:41;;;;;;;5.45;2.40;;;24.50;70.40;;;;;;6214090;23;20004;-71
2022/05/20 09:43:22;;;;;;;5.57;2.50;;;24.70;69.80;;;;;;6214362;23;20033;-71
2022/05/20 09:45:49;;;;;;;4.22;2.92;;;24.70;70.90;;;;;;6187151;23;20239;-71
2022/05/20 09:48:38;;;;;;;4.28;3.20;;;24.70;69.00;;;;;;6214152;23;20001;-71
2022/05/20 09:51:04;;;;;;;5.78;2.97;;;24.70;68.70;;;;;;6214022;23;19996;-72
2022/05/20 09:53:42;;;;;;;2.90;2.70;;;24.80;68.80;;;;;;6214227;23;20055;-72
2022/05/20 09:56:18;;;;;;;5.00;2.17;;;24.70;66.90;;;;;;6214023;23;20004;-74
2022/05/20 09:58:58;;;;;;;2.67;2.47;;;24.90;67.30;;;;;;6212311;23;20488;-72
2022/05/20 10:01:26;;;;;;;4.82;2.63;;;25.00;69.60;;;;;;6209468;23;20380;-71
2022/05/20 10:03:57;;;;;;;4.65;2.85;;;25.20;66.50;;;;;;6210487;23;20004;-72
2022/05/20 10:06:29;;;;;;;7.80;2.92;;;25.40;67.60;;;;;;6212540;23;20024;-71
2022/05/20 10:09:10;;;;;;;;;;;25.40;64.60;;;;;;6185530;23;20005;-71
2022/05/20 10:11:48;;;;;;;4.22;2.75;;;25.40;66.10;;;;;;6212562;23;19911;-71
2022/05/20 10:14:22;;;;;;;4.18;2.80;;;25.50;65.70;;;;;;6212170;23;20001;-72
2022/05/20 10:16:57;;;;;;;3.28;2.95;;;25.60;66.00;;;;;;6211242;23;20040;-72
2022/05/20 10:19:44;;;;;;;8.25;3.63;;;25.60;64.70;;;;;;6188053;23;20001;-73
2022/05/20 10:22:34;;;;;;;4.07;2.97;;;25.70;66.30;;;;;;6215816;23;19997;-72
2022/05/20 10:25:08;;;;;;;7.82;3.50;;;25.70;64.70;;;;;;6188979;23;20001;-72
2022/05/20 10:28:11;;;;;;;7.88;3.60;;;25.80;65.10;;;;;;6189010;23;20032;-72
2022/05/20 10:33:35;;;;;;;9.00;3.70;;;25.90;64.30;;;;;;6215828;23;20445;-71
2022/05/20 10:36:40;;;;;;;6.55;3.20;;;26.00;65.10;;;;;;6215266;23;20001;-71
2022/05/20 10:39:18;;;;;;;4.88;2.80;;;26.20;66.80;;;;;;6155048;23;20302;-72
2022/05/20 10:42:03;;;;;;;6.00;3.42;;;26.30;66.80;;;;;;6215513;23;20004;-71
2022/05/20 10:50:25;;;;;;;7.82;4.40;;;26.60;65.20;;;;;;6212554;23;20082;-77
2022/05/20 10:53:05;;;;;;;8.88;5.25;;;26.50;67.30;;;;;;6184710;23;20000;-77
2022/05/20 10:55:50;;;;;;;6.05;5.43;;;26.50;67.30;;;;;;6207586;23;20004;-77
2022/05/20 10:58:52;;;;;;;6.15;5.65;;;26.60;68.00;;;;;;6210045;23;20012;-78
2022/05/20 11:01:25;;;;;;;7.45;4.68;;;26.50;66.90;;;;;;6213856;23;20011;-77
2022/05/20 11:04:22;;;;;;;9.32;5.00;;;26.60;68.30;;;;;;6213936;23;20028;-79
2022/05/20 11:07:01;;;;;;;6.63;5.03;;;26.70;68.00;;;;;;6212913;23;20000;-79
2022/05/20 11:09:38;;;;;;;13.70;5.88;;;26.80;67.60;;;;;;6212984;23;20076;-79
2022/05/20 11:12:05;;;;;;;9.98;4.80;;;26.90;66.80;;;;;;6212488;23;20440;-79
2022/05/20 11:14:37;;;;;;;13.35;5.43;;;27.00;67.70;;;;;;6213359;23;20005;-79
2022/05/20 11:17:20;;;;;;;;;;;27.00;68.20;;;;;;6214063;23;20013;-79
2022/05/20 11:19:54;;;;;;;6.35;5.65;;;27.00;67.20;;;;;;6213668;23;19900;-79
2022/05/20 11:22:46;;;;;;;6.15;4.55;;;27.00;66.50;;;;;;6213845;23;20005;-79
2022/05/20 11:25:21;;;;;;;7.60;5.25;;;27.10;67.00;;;;;;6156455;23;20012;-79
2022/05/20 11:28:17;;;;;;;7.22;5.35;;;27.20;67.20;;;;;;6212992;23;20016;-79
2022/05/20 11:31:05;;;;;;;8.35;6.03;;;27.30;67.10;;;;;;6212495;23;20001;-79
2022/05/20 11:33:58;;;;;;;9.73;6.45;;;27.40;66.30;;;;;;6212180;23;19992;-77
2022/05/20 11:37:00;;;;;;;12.52;5.45;;;27.40;66.20;;;;;;6211942;23;20074;-77
2022/05/20 11:40:05;;;;;;;10.20;5.93;;;27.60;65.80;;;;;;6090638;23;20011;-79
2022/05/20 11:42:54;;;;;;;10.05;6.28;;;27.70;65.90;;;;;;6211991;23;20310;-79
2022/05/20 11:45:39;;;;;;;14.88;6.85;;;27.80;63.20;;;;;;6212959;23;20028;-80
2022/05/20 11:48:23;;;;;;;11.93;7.45;;;27.80;63.70;;;;;;6213234;23;20001;-79
2022/05/20 11:51:23;;;;;;;9.10;5.47;;;27.80;63.60;;;;;;6212526;23;20062;-79
2022/05/20 11:53:55;;;;;;;6.57;5.35;;;27.90;63.80;;;;;;6213044;23;20001;-79
2022/05/20 11:56:32;;;;;;;10.40;5.05;;;28.10;63.30;;;;;;6212908;23;20005;-78
2022/05/20 11:59:15;;;;;;;5.47;4.80;;;28.20;63.60;;;;;;6212310;23;20051;-77
2022/05/20 12:01:44;;;;;;;8.75;5.25;;;28.30;61.80;;;;;;6213092;23;19996;-80
2022/05/20 12:04:11;;;;;;;9.45;5.07;;;28.30;62.10;;;;;;6185874;23;20417;-78
2022/05/20 12:06:54;;;;;;;8.25;5.47;;;28.50;62.10;;;;;;6213071;23;20075;-77
2022/05/20 12:09:29;;;;;;;6.05;4.68;;;28.40;60.70;;;;;;6212565;23;20083;-79
2022/05/20 12:12:13;;;;;;;13.45;4.60;;;28.50;61.90;;;;;;6212539;23;20028;-79
2022/05/20 12:14:54;;;;;;;6.63;4.68;;;28.80;61.40;;;;;;6212429;23;20687;-77
2022/05/20 12:17:40;;;;;;;6.35;4.47;;;28.90;60.70;;;;;;6185749;23;20025;-79
2022/05/20 12:26:17;;;;;;;10.30;5.47;;;29.00;59.80;;;;;;6212463;23;20349;-79
2022/05/20 12:28:42;;;;;;;;;;;29.10;59.80;;;;;;6212736;23;20442;-77
2022/05/20 12:31:22;;;;;;;13.80;4.78;;;29.20;59.10;;;;;;6211703;23;19979;-77
2022/05/20 12:33:54;;;;;;;7.32;4.00;;;29.30;59.80;;;;;;6211971;23;20027;-76
2022/05/20 12:36:21;;;;;;;7.18;4.65;;;29.40;60.00;;;;;;6211218;23;20001;-79
2022/05/20 12:38:48;;;;;;;11.68;4.93;;;29.60;59.10;;;;;;6184895;23;20016;-79
2022/05/20 12:41:31;;;;;;;6.70;3.97;;;29.70;58.90;;;;;;6212514;23;20005;-77
2022/05/20 12:44:19;;;;;;;7.50;4.47;;;29.80;58.70;;;;;;6212386;23;20003;-79
2022/05/20 12:47:14;;;;;;;5.90;4.10;;;29.80;58.50;;;;;;6183023;23;20016;-79
2022/05/20 12:49:48;;;;;;;5.82;4.30;;;30.10;58.20;;;;;;6210006;23;19992;-79
2022/05/20 12:52:33;;;;;;;5.03;4.45;;;30.10;58.00;;;;;;6209962;23;20000;-77
2022/05/20 12:55:19;;;;;;;9.70;4.30;;;30.10;57.30;;;;;;6210640;23;19997;-79
2022/05/20 12:57:59;;;;;;;7.38;4.03;;;30.10;56.70;;;;;;6209867;23;20055;-79
2022/05/20 13:00:47;;;;;;;8.07;4.00;;;30.30;58.00;;;;;;6210889;23;20000;-77
2022/05/20 13:03:34;;;;;;;9.52;3.83;;;30.50;57.70;;;;;;6211488;23;20380;-79
2022/05/20 13:06:02;;;;;;;9.20;3.95;;;30.60;58.10;;;;;;6212382;23;20000;-79
2022/05/20 13:08:50;;;;;;;6.85;4.32;;;30.50;57.30;;;;;;6211517;23;20000;-79
2022/05/20 13:11:18;;;;;;;4.53;3.78;;;30.50;56.80;;;;;;6212678;23;20007;-78
2022/05/20 13:13:45;;;;;;;15.52;4.82;;;30.60;57.30;;;;;;6211818;23;20075;-79
2022/05/20 13:16:14;;;;;;;10.30;4.60;;;30.60;56.50;;;;;;6212004;23;20013;-79
2022/05/20 13:18:42;;;;;;;5.15;4.65;;;30.80;56.50;;;;;;6212574;23;20018;-79
2022/05/20 13:21:18;;;;;;;4.95;3.97;;;30.80;55.50;;;;;;6211796;23;20008;-79
2022/05/20 13:23:50;;;;;;;5.03;4.53;;;30.80;56.10;;;;;;6211387;23;20011;-75
2022/05/20 13:26:32;;;;;;;4.80;4.35;;;30.90;55.70;;;;;;6211527;23;20004;-79
2022/05/20 13:29:16;;;;;;;8.32;3.63;;;30.90;55.50;;;;;;6211547;23;20000;-79
2022/05/20 13:31:44;;;;;;;7.28;4.53;;;31.00;55.10;;;;;;6210385;23;20007;-79
2022/05/20 13:34:10;;;;;;;6.88;3.50;;;31.20;54.90;;;;;;6204818;23;20433;-77
2022/05/20 13:36:44;;;;;;;5.13;3.70;;;31.30;56.50;;;;;;6205515;23;20007;-79
2022/05/20 13:39:16;;;;;;;11.80;4.05;;;31.40;55.60;;;;;;6205875;23;19997;-79
2022/05/20 13:41:43;;;;;;;9.13;4.13;;;31.50;55.20;;;;;;6205109;23;20008;-79
2022/05/20 13:44:09;;;;;;;11.10;3.08;;;31.20;55.00;;;;;;6178542;23;20106;-76
2022/05/20 13:49:26;;;;;;;6.95;3.70;;;31.40;55.50;;;;;;6207605;23;20068;-79
2022/05/20 13:52:05;;;;;;;6.18;3.85;;;31.50;55.00;;;;;;6209010;23;20383;-79
2022/05/20 13:54:42;;;;;;;3.72;3.22;;;31.40;52.60;;;;;;6208412;23;20001;-79